createdAt,value
2022-11-13T09:30:31.768Z,3.55
2022-11-13T09:33:00.302Z,3.80
2022-11-13T09:35:36.051Z,3.20
2022-11-13T09:38:11.491Z,3.20
2022-11-13T09:40:59.349Z,3.20
2022-11-13T09:44:00.279Z,2.97
2022-11-13T09:46:47.754Z,2.78
2022-11-13T09:49:16.051Z,2.60
2022-11-13T09:51:53.245Z,2.70
2022-11-13T09:54:19.684Z,2.85
2022-11-13T09:58:43.646Z,2.70
2022-11-13T10:01:16.244Z,3.10
2022-11-13T10:04:00.538Z,3.20
2022-11-13T10:07:12.688Z,3.40
2022-11-13T10:10:04.111Z,3.40
2022-11-13T10:12:30.436Z,3.00
2022-11-13T10:14:59.940Z,2.83
2022-11-13T10:17:59.594Z,3.10
2022-11-13T10:20:40.360Z,3.20
2022-11-13T10:23:18.440Z,3.40
2022-11-13T10:25:44.905Z,3.70
2022-11-13T10:28:49.019Z,3.50
2022-11-13T10:31:24.211Z,4.05
2022-11-13T10:33:51.878Z,4.10
2022-11-13T10:36:37.225Z,4.10
2022-11-13T10:39:08.090Z,4.00
2022-11-13T10:41:52.551Z,4.75
2022-11-13T10:44:29.198Z,3.85
2022-11-13T10:48:04.895Z,4.37
2022-11-13T10:50:31.815Z,4.37
2022-11-13T10:52:58.179Z,4.80
2022-11-13T10:55:40.584Z,4.65
2022-11-13T10:58:17.922Z,5.80
2022-11-13T11:00:47.385Z,5.78
2022-11-13T11:03:16.238Z,7.03
2022-11-13T11:05:52.235Z,8.57
2022-11-13T11:08:19.000Z,6.95
2022-11-13T11:12:31.123Z,6.60
2022-11-13T11:15:10.907Z,6.10
2022-11-13T11:17:52.076Z,6.78
2022-11-13T11:20:41.175Z,6.80
2022-11-13T11:23:45.046Z,7.45
2022-11-13T11:26:29.856Z,5.95
2022-11-13T11:33:18.167Z,6.15
2022-11-13T11:37:23.651Z,5.00
2022-11-13T11:40:44.788Z,6.68
2022-11-13T11:43:26.869Z,5.37
2022-11-13T11:45:53.570Z,5.90
2022-11-13T11:48:25.757Z,4.60
2022-11-13T11:51:16.959Z,5.55
2022-11-13T11:55:24.242Z,5.80
2022-11-13T11:59:04.402Z,4.62
2022-11-13T12:02:34.437Z,4.90
2022-11-13T12:08:21.980Z,5.18
2022-11-13T12:11:42.891Z,4.70
2022-11-13T12:15:57.595Z,4.40
2022-11-13T12:20:11.840Z,4.12
2022-11-13T12:22:51.394Z,3.65
2022-11-13T12:25:45.388Z,3.50
2022-11-13T12:28:40.995Z,3.30
2022-11-13T12:34:03.641Z,3.30
2022-11-13T12:36:29.938Z,3.22
2022-11-13T12:39:30.098Z,3.10
2022-11-13T12:42:19.681Z,3.05
2022-11-13T12:51:44.038Z,3.20
2022-11-13T12:54:10.399Z,3.00
2022-11-13T12:56:37.059Z,2.70
2022-11-13T13:05:43.036Z,2.80
2022-11-13T13:08:31.419Z,2.40
2022-11-13T13:13:05.298Z,2.95
2022-11-13T13:15:37.685Z,3.00
2022-11-13T13:18:28.271Z,3.30
2022-11-13T13:21:11.464Z,3.67
2022-11-13T13:23:42.836Z,4.30
2022-11-13T13:26:46.238Z,4.40
2022-11-13T13:29:22.002Z,3.95
2022-11-13T13:32:10.955Z,4.00
2022-11-13T13:35:13.372Z,3.50
2022-11-13T13:40:58.727Z,3.20
2022-11-13T13:43:43.288Z,3.10
2022-11-13T13:46:21.365Z,3.03
2022-11-13T13:48:48.740Z,3.20
2022-11-13T13:52:00.639Z,3.08
2022-11-13T13:54:30.562Z,3.10
2022-11-13T13:56:57.205Z,3.10
2022-11-13T13:59:32.623Z,3.22
2022-11-13T14:02:02.000Z,3.33
2022-11-13T14:04:35.356Z,3.20
2022-11-13T14:07:04.217Z,2.92
2022-11-13T14:09:30.770Z,3.00
2022-11-13T14:12:08.997Z,2.83
2022-11-13T14:14:39.217Z,2.67
2022-11-13T14:17:07.835Z,2.90
2022-11-13T14:19:34.468Z,2.70
2022-11-13T14:22:02.141Z,2.90
2022-11-13T14:25:25.392Z,2.78
2022-11-13T14:27:51.784Z,2.90
2022-11-13T14:30:27.472Z,2.95
2022-11-13T14:32:54.808Z,3.20
2022-11-13T14:35:25.177Z,3.62
2022-11-13T14:37:52.333Z,3.72
2022-11-13T14:40:24.602Z,3.30
2022-11-13T14:42:56.988Z,3.10
2022-11-13T14:45:26.831Z,3.30
2022-11-13T14:47:57.885Z,3.10
2022-11-13T14:50:29.391Z,3.20
2022-11-13T14:53:24.780Z,3.50
2022-11-13T14:55:53.057Z,3.40
2022-11-13T14:58:32.820Z,3.70
2022-11-13T15:01:11.868Z,3.60
2022-11-13T15:03:39.175Z,3.62
2022-11-13T15:06:13.630Z,3.83
2022-11-13T15:08:40.362Z,3.60
2022-11-13T15:11:09.918Z,3.58
2022-11-13T15:13:36.824Z,3.70
2022-11-13T15:16:04.477Z,3.65
2022-11-13T15:18:31.428Z,3.95
2022-11-13T15:20:57.645Z,4.07
2022-11-13T15:23:25.454Z,3.92
2022-11-13T15:25:52.336Z,3.78
2022-11-13T15:28:18.804Z,3.92
2022-11-13T15:30:45.092Z,3.95
2022-11-13T15:33:15.898Z,4.40
2022-11-13T15:35:42.871Z,4.60
2022-11-13T15:38:10.041Z,5.00
2022-11-13T15:40:37.924Z,4.70
2022-11-13T15:43:05.445Z,4.40
2022-11-13T15:45:32.210Z,4.70
2022-11-13T15:47:58.496Z,3.92
2022-11-13T15:50:26.564Z,4.25
2022-11-13T15:52:52.923Z,4.70
2022-11-13T15:55:25.934Z,4.12
2022-11-13T15:57:52.756Z,4.03
2022-11-13T16:00:21.037Z,4.55
2022-11-13T16:03:10.311Z,4.68
2022-11-13T16:05:37.305Z,5.30
2022-11-13T16:08:13.493Z,4.55
2022-11-13T16:10:41.316Z,4.43
2022-11-13T16:13:07.685Z,4.65
2022-11-13T16:15:36.119Z,4.60
2022-11-13T16:18:04.391Z,4.80
2022-11-13T16:20:31.185Z,4.90
2022-11-13T16:22:58.286Z,4.78
2022-11-13T16:25:26.031Z,4.82
2022-11-13T16:27:53.605Z,4.28
2022-11-13T16:30:21.418Z,4.60
2022-11-13T16:32:48.943Z,3.70
2022-11-13T16:35:16.671Z,3.90
2022-11-13T16:37:43.276Z,4.15
2022-11-13T16:40:19.878Z,4.68
2022-11-13T16:42:47.815Z,4.93
2022-11-13T16:45:19.857Z,5.00
2022-11-13T16:47:48.756Z,4.80
2022-11-13T16:50:25.348Z,4.78
2022-11-13T16:52:52.991Z,4.62
2022-11-13T16:55:20.583Z,5.30
2022-11-13T16:57:48.703Z,5.28
2022-11-13T17:00:16.644Z,4.72
2022-11-13T17:02:44.331Z,4.70
2022-11-13T17:05:15.533Z,4.87
2022-11-13T17:07:42.546Z,4.90
2022-11-13T17:10:30.930Z,4.78
2022-11-13T17:12:58.420Z,5.30
2022-11-13T17:15:25.347Z,5.03
2022-11-13T17:18:01.255Z,5.85
2022-11-13T17:20:28.581Z,4.93
2022-11-13T17:22:55.557Z,4.57
2022-11-13T17:25:26.049Z,4.50
2022-11-13T17:27:52.724Z,4.62
2022-11-13T17:30:20.536Z,4.00
2022-11-13T17:32:46.881Z,3.70
2022-11-13T17:35:13.142Z,5.43
2022-11-13T17:37:40.516Z,6.62
2022-11-13T17:40:08.181Z,4.15
2022-11-13T17:42:34.503Z,4.25
2022-11-13T17:45:00.823Z,4.50
2022-11-13T17:47:27.635Z,5.28
2022-11-13T17:50:01.152Z,4.43
2022-11-13T17:52:36.038Z,4.30
2022-11-13T17:55:12.551Z,11.18
2022-11-13T17:57:40.909Z,4.80
2022-11-13T18:00:09.871Z,4.12
2022-11-13T18:02:37.235Z,5.30
2022-11-13T18:05:04.799Z,11.45
2022-11-13T18:07:32.177Z,9.82
2022-11-13T18:09:59.281Z,11.13
2022-11-13T18:12:26.483Z,6.22
2022-11-13T18:14:54.481Z,5.47
2022-11-13T18:17:23.654Z,5.72
2022-11-13T18:19:50.644Z,5.07
2022-11-13T18:22:17.291Z,4.40
2022-11-13T18:24:44.923Z,3.70
2022-11-13T18:27:12.319Z,4.93
2022-11-13T18:29:43.170Z,5.07
2022-11-13T18:32:10.656Z,4.07
2022-11-13T18:34:38.275Z,7.90
2022-11-13T18:37:05.853Z,7.43
2022-11-13T18:39:32.832Z,6.78
2022-11-13T18:42:01.044Z,6.53
2022-11-13T18:44:29.389Z,7.32
2022-11-13T18:46:57.636Z,8.07
2022-11-13T18:49:24.472Z,8.18
2022-11-13T18:51:51.019Z,7.68
2022-11-13T18:54:19.191Z,7.85
2022-11-13T18:56:46.439Z,8.32
2022-11-13T18:59:15.231Z,10.18
2022-11-13T19:01:42.549Z,7.97
2022-11-13T19:04:24.343Z,6.12
2022-11-13T19:06:51.369Z,6.55
2022-11-13T19:09:20.134Z,6.20
2022-11-13T19:11:47.310Z,4.78
2022-11-13T19:14:15.519Z,5.78
2022-11-13T19:16:42.499Z,7.20
2022-11-13T19:19:19.857Z,5.47
2022-11-13T19:21:47.929Z,5.72
2022-11-13T19:24:14.889Z,9.57
2022-11-13T19:26:43.288Z,7.85
2022-11-13T19:29:10.617Z,5.80
2022-11-13T19:31:38.212Z,5.72
2022-11-13T19:34:07.056Z,56.37
2022-11-13T19:36:34.911Z,43.33
2022-11-13T19:39:01.547Z,13.35
2022-11-13T19:41:30.006Z,51.58
2022-11-13T19:44:01.341Z,18.48
2022-11-13T19:46:28.226Z,4.23
2022-11-13T19:48:56.119Z,4.20
2022-11-13T19:51:24.743Z,4.10
2022-11-13T19:53:56.780Z,6.05
2022-11-13T19:56:24.164Z,31.75
2022-11-13T19:58:52.199Z,4.25
2022-11-13T20:01:24.959Z,13.52
2022-11-13T20:04:01.929Z,25.65
2022-11-13T20:06:30.229Z,50.80
2022-11-13T20:08:58.736Z,63.33
2022-11-13T20:11:26.019Z,5.73
2022-11-13T20:13:52.869Z,29.02
2022-11-13T20:16:23.295Z,31.58
2022-11-13T20:18:49.869Z,42.00
2022-11-13T20:21:26.187Z,17.60
2022-11-13T20:23:54.833Z,8.07
2022-11-13T20:26:21.726Z,31.70
2022-11-13T20:28:49.627Z,3.80
2022-11-13T20:31:30.557Z,4.47
2022-11-13T20:34:08.162Z,20.80
2022-11-13T20:36:37.595Z,4.40
2022-11-13T20:39:09.518Z,4.30
2022-11-13T20:41:37.257Z,19.03
2022-11-13T20:44:03.768Z,27.90
2022-11-13T20:46:30.431Z,22.92
2022-11-13T20:48:57.309Z,35.73
2022-11-13T20:51:25.810Z,33.75
2022-11-13T20:53:52.516Z,12.43
2022-11-13T20:56:19.404Z,8.77
2022-11-13T20:58:45.782Z,11.00
2022-11-13T21:01:21.377Z,17.77
2022-11-13T21:03:48.266Z,29.25
2022-11-13T21:06:26.272Z,9.05
2022-11-13T21:08:55.690Z,26.08
2022-11-13T21:11:22.632Z,36.72
2022-11-13T21:13:49.270Z,32.33
2022-11-13T21:16:16.096Z,48.03
2022-11-13T21:18:42.540Z,41.92
2022-11-13T21:21:16.487Z,45.00
2022-11-13T21:23:42.879Z,37.38
2022-11-13T21:26:10.324Z,40.00
2022-11-13T21:28:37.510Z,21.85
2022-11-13T21:31:19.404Z,36.90
2022-11-13T21:33:46.746Z,21.12
2022-11-13T21:36:21.093Z,41.92
2022-11-13T21:38:56.844Z,30.60
2022-11-13T21:41:27.097Z,43.65
2022-11-13T21:44:04.767Z,33.90
2022-11-13T21:46:38.525Z,29.08
2022-11-13T21:49:12.902Z,31.08
2022-11-13T21:51:41.946Z,31.80
2022-11-13T21:54:08.606Z,29.45
2022-11-13T21:56:36.495Z,45.15
2022-11-13T21:59:03.948Z,17.98
2022-11-13T22:01:37.538Z,21.80
2022-11-13T22:04:05.202Z,22.98
2022-11-13T22:06:32.915Z,26.10
2022-11-13T22:09:00.982Z,28.38
2022-11-13T22:11:28.932Z,19.30
2022-11-13T22:13:55.410Z,15.75
2022-11-13T22:16:21.975Z,16.25
2022-11-13T22:18:51.419Z,11.77
2022-11-13T22:21:17.769Z,21.27
2022-11-13T22:23:44.118Z,19.70
2022-11-13T22:26:12.239Z,18.02
2022-11-13T22:28:39.821Z,17.85
2022-11-13T22:31:06.752Z,14.93
2022-11-13T22:33:34.424Z,12.63
2022-11-13T22:36:05.356Z,12.73
2022-11-13T22:38:33.225Z,17.97
2022-11-13T22:41:07.972Z,18.52
2022-11-13T22:43:35.340Z,17.92
2022-11-13T22:46:06.623Z,19.55
2022-11-13T22:48:34.788Z,13.73
2022-11-13T22:51:06.247Z,15.90
2022-11-13T22:53:34.545Z,20.17
2022-11-13T22:56:09.121Z,20.40
2022-11-13T22:58:36.084Z,21.35
2022-11-13T23:01:08.121Z,19.80
2022-11-13T23:03:39.098Z,16.35
2022-11-13T23:06:06.831Z,20.80
2022-11-13T23:08:37.988Z,21.83
2022-11-13T23:11:13.458Z,19.12
2022-11-13T23:13:41.229Z,15.30
2022-11-13T23:16:07.875Z,20.23
2022-11-13T23:18:34.101Z,15.90
2022-11-13T23:21:00.525Z,14.43
2022-11-13T23:23:27.170Z,30.60
2022-11-13T23:25:53.804Z,15.05
2022-11-13T23:28:20.133Z,27.75
2022-11-13T23:30:46.362Z,19.98
2022-11-13T23:33:12.791Z,16.05
2022-11-13T23:35:39.171Z,30.42
2022-11-13T23:38:05.799Z,12.75
2022-11-13T23:40:32.083Z,25.02
2022-11-13T23:42:58.273Z,15.98
2022-11-13T23:45:24.461Z,19.12
2022-11-13T23:47:50.795Z,11.15
2022-11-13T23:50:17.201Z,17.27
2022-11-13T23:52:43.940Z,18.45
2022-11-13T23:55:10.472Z,20.40
2022-11-13T23:57:36.687Z,18.10
